Time;durP1;ratioP1;P1;durP2;ratioP2;P2;SDS_P1;SDS_P2;PMS_P1;PMS_P2;Temp;Humidity;BMP_temperature;BMP_pressure;BME280_temperature;BME280_humidity;BME280_pressure;Samples;Min_cycle;Max_cycle;Signal;HPM_P1;HPM_P2
2024/01/11 00:00:26;;;;;;;35.40;18.30;;;-2.90;99.90;;;;;;5092950;28;20172;-80
2024/01/11 00:02:52;;;;;;;45.63;22.20;;;-2.90;99.90;;;;;;5093228;28;20194;-81
2024/01/11 00:05:18;;;;;;;40.70;20.50;;;-2.90;99.90;;;;;;5092724;28;20645;-80
2024/01/11 00:07:43;;;;;;;43.53;21.80;;;-2.80;99.90;;;;;;5093051;28;20174;-80
2024/01/11 00:10:09;;;;;;;38.93;17.93;;;-2.90;99.90;;;;;;5092864;28;20214;-79
2024/01/11 00:12:34;;;;;;;39.20;22.07;;;-2.90;99.90;;;;;;5096054;28;20703;-81
2024/01/11 00:15:00;;;;;;;36.00;20.17;;;-2.90;99.90;;;;;;5096720;28;20173;-80
2024/01/11 00:17:26;;;;;;;41.53;20.40;;;-2.90;99.90;;;;;;5095629;28;20214;-81
2024/01/11 00:19:52;;;;;;;38.73;21.50;;;-3.00;99.90;;;;;;5096346;28;20179;-79
2024/01/11 00:22:17;;;;;;;40.47;21.13;;;-3.00;99.90;;;;;;5096824;28;20262;-79
2024/01/11 00:24:43;;;;;;;43.77;21.30;;;-3.00;99.90;;;;;;5096723;28;20645;-79
2024/01/11 00:27:08;;;;;;;40.07;21.57;;;-3.00;99.90;;;;;;5096615;28;20181;-80
2024/01/11 00:29:35;;;;;;;43.17;22.50;;;-3.00;99.90;;;;;;5096426;28;20230;-79
2024/01/11 00:32:01;;;;;;;40.90;21.50;;;-3.00;99.90;;;;;;5096340;28;20224;-80
2024/01/11 00:34:26;;;;;;;36.77;21.40;;;-2.90;99.90;;;;;;5094834;28;20182;-80
2024/01/11 00:36:52;;;;;;;40.33;21.43;;;-2.90;99.90;;;;;;5096627;28;20174;-81
2024/01/11 00:39:18;;;;;;;42.30;23.30;;;-2.90;99.90;;;;;;5096443;28;20167;-80
2024/01/11 00:41:43;;;;;;;42.90;21.53;;;-3.00;99.90;;;;;;5096384;28;20175;-79
2024/01/11 00:44:09;;;;;;;46.60;27.83;;;-3.00;99.90;;;;;;5096293;28;20208;-80
2024/01/11 00:46:35;;;;;;;44.73;21.80;;;-2.90;99.90;;;;;;5096205;28;20269;-83
2024/01/11 00:49:00;;;;;;;36.50;20.70;;;-2.90;99.90;;;;;;5094640;28;20206;-81
2024/01/11 00:51:26;;;;;;;40.43;21.33;;;-2.90;99.90;;;;;;5096168;28;20653;-79
2024/01/11 00:53:51;;;;;;;39.37;21.20;;;-2.90;99.90;;;;;;5096430;28;20629;-81
2024/01/11 00:56:18;;;;;;;43.00;22.07;;;-2.90;99.90;;;;;;5096030;28;20174;-80
2024/01/11 00:58:44;;;;;;;41.67;22.87;;;-3.00;99.90;;;;;;5094885;28;20201;-81
2024/01/11 01:01:10;;;;;;;40.27;21.77;;;-3.00;99.90;;;;;;5096050;28;20619;-81
2024/01/11 01:03:35;;;;;;;42.67;21.77;;;-3.00;99.90;;;;;;5095917;28;20530;-81
2024/01/11 01:06:02;;;;;;;43.63;21.70;;;-3.00;99.90;;;;;;5095909;28;20174;-81
2024/01/11 01:08:28;;;;;;;48.87;22.40;;;-3.10;99.90;;;;;;5096021;28;20198;-79
2024/01/11 01:10:53;;;;;;;39.33;21.27;;;-3.10;99.90;;;;;;5095746;28;20637;-80
2024/01/11 01:13:19;;;;;;;38.43;20.40;;;-3.10;99.90;;;;;;5095889;28;20254;-80
2024/01/11 01:15:44;;;;;;;39.70;21.03;;;-3.10;99.90;;;;;;5095756;28;20658;-80
2024/01/11 01:18:10;;;;;;;41.90;21.53;;;-3.20;99.90;;;;;;5095367;28;20665;-81
2024/01/11 01:20:36;;;;;;;41.47;22.77;;;-3.20;99.90;;;;;;5095921;28;20184;-78
2024/01/11 01:23:02;;;;;;;47.67;22.83;;;-3.20;99.90;;;;;;5095259;28;20173;-83
2024/01/11 01:25:27;;;;;;;47.30;22.80;;;-3.30;99.90;;;;;;5095963;28;20176;-81
2024/01/11 01:27:53;;;;;;;39.33;20.57;;;-3.30;99.90;;;;;;5095592;28;20162;-79
2024/01/11 01:30:18;;;;;;;45.23;21.83;;;-3.30;99.90;;;;;;5095135;28;20229;-79
2024/01/11 01:32:44;;;;;;;39.60;20.87;;;-3.30;99.90;;;;;;5095052;28;20179;-81
2024/01/11 01:35:09;;;;;;;53.73;29.60;;;-3.30;99.90;;;;;;5095398;28;20262;-80
2024/01/11 01:37:35;;;;;;;47.73;25.43;;;-3.30;99.90;;;;;;5095416;28;20193;-80
2024/01/11 01:40:00;;;;;;;41.43;22.03;;;-3.30;99.90;;;;;;5095404;28;20172;-79
2024/01/11 01:42:26;;;;;;;41.23;22.23;;;-3.30;99.90;;;;;;5095324;28;20173;-79
2024/01/11 01:44:52;;;;;;;42.17;22.03;;;-3.30;99.90;;;;;;5095336;28;20173;-79
2024/01/11 01:47:18;;;;;;;43.63;21.83;;;-3.30;99.90;;;;;;5094729;28;20268;-80
2024/01/11 01:49:45;;;;;;;40.33;20.97;;;-3.30;99.90;;;;;;5095064;28;20263;-79
2024/01/11 01:52:14;;;;;;;44.23;22.37;;;-3.30;99.90;;;;;;5095119;28;20174;-81
2024/01/11 01:54:40;;;;;;;40.53;21.93;;;-3.30;99.90;;;;;;5095044;28;20166;-80
2024/01/11 01:57:07;;;;;;;43.70;22.50;;;-3.30;99.90;;;;;;5095205;28;20581;-80
2024/01/11 01:59:33;;;;;;;40.43;21.57;;;-3.20;99.90;;;;;;5093677;28;20263;-79
2024/01/11 02:02:00;;;;;;;39.90;21.97;;;-3.20;99.90;;;;;;5094405;28;20173;-80
2024/01/11 02:04:26;;;;;;;42.33;21.27;;;-3.20;99.90;;;;;;5093746;28;20175;-79
2024/01/11 02:06:54;;;;;;;41.47;22.50;;;-3.20;99.90;;;;;;5093613;28;20175;-79
2024/01/11 02:09:19;;;;;;;40.53;22.40;;;-3.20;99.90;;;;;;5094670;28;20211;-79
2024/01/11 02:11:45;;;;;;;40.43;22.43;;;-3.20;99.90;;;;;;5094710;28;20164;-82
2024/01/11 02:14:11;;;;;;;39.63;21.70;;;-3.30;99.90;;;;;;5094584;28;20179;-78
2024/01/11 02:16:37;;;;;;;42.07;22.20;;;-3.30;99.90;;;;;;5094039;28;20177;-81
2024/01/11 02:19:06;;;;;;;39.23;21.10;;;-3.30;99.90;;;;;;5094561;28;20172;-79
2024/01/11 02:21:34;;;;;;;41.20;22.17;;;-3.40;99.90;;;;;;5094696;28;20186;-80
2024/01/11 02:24:07;;;;;;;38.23;21.23;;;-3.40;99.90;;;;;;5094436;28;20189;-81
2024/01/11 02:26:33;;;;;;;41.57;22.87;;;-3.40;99.90;;;;;;5094334;28;20180;-80
2024/01/11 02:28:59;;;;;;;37.73;21.23;;;-3.40;99.90;;;;;;5093957;28;20233;-81
2024/01/11 02:31:25;;;;;;;37.73;20.67;;;-3.40;99.90;;;;;;5092861;28;20177;-81
2024/01/11 02:33:53;;;;;;;39.67;22.93;;;-3.50;99.90;;;;;;5093617;28;20731;-81
2024/01/11 02:36:20;;;;;;;40.53;22.43;;;-3.50;99.90;;;;;;5094453;28;20170;-78
2024/01/11 02:38:46;;;;;;;39.63;21.13;;;-3.50;99.90;;;;;;5094444;28;20169;-79
2024/01/11 02:41:14;;;;;;;42.17;21.77;;;-3.60;99.90;;;;;;5094061;28;20171;-79
2024/01/11 02:43:39;;;;;;;34.23;18.07;;;-3.50;99.90;;;;;;5094164;28;20172;-79
2024/01/11 02:46:05;;;;;;;38.97;21.80;;;-3.50;99.90;;;;;;5093610;28;20165;-80
2024/01/11 02:48:31;;;;;;;43.10;22.10;;;-3.50;99.90;;;;;;5075942;28;20233;-80
2024/01/11 02:50:59;;;;;;;36.60;20.43;;;-3.50;99.90;;;;;;5094086;28;20192;-82
2024/01/11 02:53:25;;;;;;;39.37;19.17;;;-3.60;99.90;;;;;;5093979;28;20227;-80
2024/01/11 02:55:51;;;;;;;41.03;20.43;;;-3.60;99.90;;;;;;5093877;28;20169;-81
2024/01/11 02:58:17;;;;;;;38.53;22.23;;;-3.60;99.90;;;;;;5093845;28;20662;-81
2024/01/11 03:00:42;;;;;;;40.63;21.43;;;-3.60;99.90;;;;;;5093697;28;20164;-80
2024/01/11 03:03:08;;;;;;;38.70;21.37;;;-3.60;99.90;;;;;;5092463;28;20185;-81
2024/01/11 03:05:33;;;;;;;37.53;21.47;;;-3.70;99.90;;;;;;5093727;28;20174;-82
2024/01/11 03:07:59;;;;;;;39.90;20.37;;;-3.70;99.90;;;;;;5092699;28;20620;-81
2024/01/11 03:10:24;;;;;;;37.57;21.37;;;-3.70;99.90;;;;;;5093580;28;20208;-79
2024/01/11 03:12:50;;;;;;;41.73;21.03;;;-3.70;99.90;;;;;;5091915;28;20175;-79
2024/01/11 03:15:16;;;;;;;41.47;21.47;;;-3.60;99.90;;;;;;5093662;28;20650;-81
2024/01/11 03:17:41;;;;;;;40.00;21.40;;;-3.70;99.90;;;;;;5092356;28;20235;-82
2024/01/11 03:20:07;;;;;;;35.10;19.03;;;-3.70;99.90;;;;;;5093583;28;20226;-80
2024/01/11 03:22:33;;;;;;;37.97;20.40;;;-3.70;99.90;;;;;;5093685;28;20569;-81
2024/01/11 03:24:59;;;;;;;39.80;21.03;;;-3.70;99.90;;;;;;5093489;28;20167;-80
2024/01/11 03:27:25;;;;;;;39.53;20.90;;;-3.70;99.90;;;;;;5093229;28;20180;-78
2024/01/11 03:29:50;;;;;;;39.33;21.27;;;-3.70;99.90;;;;;;5093176;28;20230;-81
2024/01/11 03:32:16;;;;;;;38.83;20.40;;;-3.70;99.90;;;;;;5093473;28;20234;-81
2024/01/11 03:34:42;;;;;;;42.20;21.40;;;-3.70;99.90;;;;;;5093616;28;20243;-80
2024/01/11 03:37:07;;;;;;;40.80;21.60;;;-3.70;99.90;;;;;;5093396;28;20175;-80
2024/01/11 03:39:34;;;;;;;38.67;21.77;;;-3.70;99.90;;;;;;5093289;28;20169;-78
2024/01/11 03:42:00;;;;;;;37.70;20.83;;;-3.70;99.90;;;;;;5093015;28;20172;-80
2024/01/11 03:44:25;;;;;;;39.80;20.57;;;-3.70;99.90;;;;;;5093340;28;20307;-79
2024/01/11 03:46:51;;;;;;;40.50;21.30;;;-3.70;99.90;;;;;;5096979;28;20649;-79
2024/01/11 03:49:17;;;;;;;40.70;20.90;;;-3.70;99.90;;;;;;5097456;28;20221;-82
2024/01/11 03:51:42;;;;;;;37.23;21.00;;;-3.80;99.90;;;;;;5097458;28;20169;-79
2024/01/11 03:54:08;;;;;;;45.57;22.47;;;-3.80;99.90;;;;;;5097421;28;20251;-81
2024/01/11 03:56:37;;;;;;;43.40;22.03;;;-3.80;99.90;;;;;;5096727;28;20164;-79
2024/01/11 03:59:02;;;;;;;45.87;22.03;;;-3.80;99.90;;;;;;5096194;28;20265;-81
2024/01/11 04:01:28;;;;;;;42.20;21.90;;;-3.70;99.90;;;;;;5095806;28;20258;-78
2024/01/11 04:03:53;;;;;;;43.93;22.17;;;-3.70;99.90;;;;;;5095973;28;20248;-81
2024/01/11 04:06:24;;;;;;;42.33;22.30;;;-3.70;99.90;;;;;;5097193;28;20171;-78
2024/01/11 04:08:50;;;;;;;39.70;21.40;;;-3.70;99.90;;;;;;5097048;28;20531;-78
2024/01/11 04:11:16;;;;;;;44.27;22.10;;;-3.80;99.90;;;;;;5096518;28;20256;-80
2024/01/11 04:13:42;;;;;;;38.40;20.60;;;-3.70;99.90;;;;;;5097180;28;20231;-79
2024/01/11 04:16:07;;;;;;;40.87;21.57;;;-3.70;99.90;;;;;;5096997;28;20174;-80
2024/01/11 04:18:33;;;;;;;43.80;21.23;;;-3.70;99.90;;;;;;5096912;28;20261;-80
2024/01/11 04:20:59;;;;;;;44.30;22.53;;;-3.70;99.90;;;;;;5096523;28;20172;-80
2024/01/11 04:23:24;;;;;;;37.73;20.63;;;-3.70;99.90;;;;;;5096886;28;20179;-80
2024/01/11 04:25:51;;;;;;;42.10;21.67;;;-3.70;99.90;;;;;;5096346;28;20281;-81
2024/01/11 04:28:17;;;;;;;44.27;22.03;;;-3.70;99.90;;;;;;5096326;28;20213;-79
2024/01/11 04:30:43;;;;;;;41.43;21.97;;;-3.70;99.90;;;;;;5096481;28;20304;-78
2024/01/11 04:33:10;;;;;;;37.17;20.83;;;-3.60;99.90;;;;;;5096503;28;20261;-79
2024/01/11 04:35:36;;;;;;;39.13;21.57;;;-3.60;99.90;;;;;;5096322;28;20273;-79
2024/01/11 04:38:01;;;;;;;42.77;22.63;;;-3.70;99.90;;;;;;5096270;28;20250;-82
2024/01/11 04:40:27;;;;;;;45.27;22.47;;;-3.80;99.90;;;;;;5096247;28;20178;-79
2024/01/11 04:42:52;;;;;;;41.70;21.30;;;-3.80;99.90;;;;;;5096462;28;20180;-81
2024/01/11 04:45:18;;;;;;;41.20;22.00;;;-3.80;99.90;;;;;;5096244;28;20173;-81
2024/01/11 04:47:43;;;;;;;39.33;22.27;;;-3.80;99.90;;;;;;5096334;28;20671;-80
2024/01/11 04:50:09;;;;;;;42.67;23.07;;;-3.80;99.90;;;;;;5096137;28;20255;-81
2024/01/11 04:52:35;;;;;;;43.90;21.73;;;-3.80;99.90;;;;;;5096141;28;20178;-79
2024/01/11 04:55:01;;;;;;;46.97;21.67;;;-3.80;99.90;;;;;;5095301;28;20664;-81
2024/01/11 04:57:27;;;;;;;39.87;22.33;;;-3.80;99.90;;;;;;5095453;28;20600;-81
2024/01/11 04:59:53;;;;;;;40.63;22.27;;;-3.80;99.90;;;;;;5096040;28;20165;-82
2024/01/11 05:02:21;;;;;;;47.20;22.60;;;-3.80;99.90;;;;;;5096041;28;20193;-81
2024/01/11 05:04:47;;;;;;;40.57;21.60;;;-3.80;99.90;;;;;;5095741;28;20178;-80
2024/01/11 05:07:13;;;;;;;42.87;22.20;;;-3.80;99.90;;;;;;5096080;28;20279;-80
2024/01/11 05:09:38;;;;;;;38.57;21.50;;;-3.80;99.90;;;;;;5093915;28;20292;-82
2024/01/11 05:12:04;;;;;;;41.37;21.97;;;-3.80;99.90;;;;;;5095945;28;20176;-79
2024/01/11 05:14:30;;;;;;;46.70;23.07;;;-3.90;99.90;;;;;;5094617;28;20653;-80
2024/01/11 05:16:56;;;;;;;38.93;21.33;;;-3.90;99.90;;;;;;5095349;28;20227;-83
2024/01/11 05:19:21;;;;;;;43.17;22.13;;;-3.80;99.90;;;;;;5095824;28;20236;-80
2024/01/11 05:21:47;;;;;;;40.83;22.43;;;-3.90;99.90;;;;;;5095615;28;20305;-82
2024/01/11 05:24:12;;;;;;;38.47;21.77;;;-3.90;99.90;;;;;;5095142;28;20185;-79
2024/01/11 05:26:38;;;;;;;43.47;22.43;;;-3.90;99.90;;;;;;5095630;28;20179;-78
2024/01/11 05:29:06;;;;;;;42.03;22.97;;;-3.90;99.90;;;;;;5094122;28;20251;-81
2024/01/11 05:31:32;;;;;;;48.53;24.23;;;-3.90;99.90;;;;;;5095195;28;20220;-81
2024/01/11 05:33:57;;;;;;;39.03;22.03;;;-3.90;99.90;;;;;;5095297;28;20196;-79
2024/01/11 05:36:23;;;;;;;44.70;23.30;;;-3.90;99.90;;;;;;5095203;28;20179;-79
2024/01/11 05:38:49;;;;;;;48.60;22.60;;;-3.90;99.90;;;;;;5093718;28;20625;-80
2024/01/11 05:41:14;;;;;;;43.17;23.03;;;-4.00;99.90;;;;;;5095130;28;20182;-79
2024/01/11 05:43:40;;;;;;;41.90;22.47;;;-4.00;99.90;;;;;;5095200;28;20169;-80
2024/01/11 05:46:06;;;;;;;41.47;22.60;;;-4.00;99.90;;;;;;5094921;28;20172;-81
2024/01/11 05:48:32;;;;;;;51.47;22.47;;;-4.00;99.90;;;;;;5095354;28;20226;-79
2024/01/11 05:50:59;;;;;;;45.10;23.07;;;-4.00;99.90;;;;;;5094859;28;20216;-84
2024/01/11 05:53:27;;;;;;;40.30;20.73;;;-4.00;99.90;;;;;;5094084;28;20188;-82
2024/01/11 05:55:53;;;;;;;47.80;22.67;;;-4.00;99.90;;;;;;5094730;28;20266;-82
2024/01/11 05:58:19;;;;;;;46.30;23.37;;;-4.00;99.90;;;;;;5094851;28;20262;-81
2024/01/11 06:00:45;;;;;;;47.27;24.27;;;-4.00;99.90;;;;;;5094625;28;20214;-79
2024/01/11 06:03:12;;;;;;;48.27;22.87;;;-4.00;99.90;;;;;;5094798;28;20196;-80
2024/01/11 06:05:38;;;;;;;46.43;23.80;;;-4.00;99.90;;;;;;5094396;28;20625;-81
2024/01/11 06:08:04;;;;;;;44.70;23.43;;;-4.00;99.90;;;;;;5094230;28;20195;-80
2024/01/11 06:10:30;;;;;;;42.77;23.43;;;-4.00;99.90;;;;;;5092696;28;20693;-80
2024/01/11 06:12:56;;;;;;;45.30;22.60;;;-4.00;99.90;;;;;;5093151;28;20173;-83
2024/01/11 06:15:22;;;;;;;46.20;24.00;;;-4.00;99.90;;;;;;5094766;28;20708;-80
2024/01/11 06:17:48;;;;;;;46.00;24.23;;;-4.00;99.90;;;;;;5092989;28;20620;-81
2024/01/11 06:20:14;;;;;;;45.67;22.90;;;-4.00;99.90;;;;;;5093157;28;20228;-80
2024/01/11 06:22:39;;;;;;;38.60;19.03;;;-4.00;99.90;;;;;;5092482;28;20165;-83
2024/01/11 06:25:06;;;;;;;44.00;23.33;;;-4.00;99.90;;;;;;5093882;28;20179;-82
2024/01/11 06:27:31;;;;;;;44.17;20.77;;;-4.00;99.90;;;;;;5092607;28;20179;-82
2024/01/11 06:29:57;;;;;;;50.53;24.13;;;-4.00;99.90;;;;;;5092042;28;20325;-81
2024/01/11 06:32:22;;;;;;;46.17;23.80;;;-4.00;99.90;;;;;;5092598;28;20179;-80
2024/01/11 06:34:48;;;;;;;48.90;23.30;;;-4.10;99.90;;;;;;5092340;28;20185;-81
2024/01/11 06:37:13;;;;;;;52.83;24.37;;;-4.00;99.90;;;;;;5093231;28;20188;-81
2024/01/11 06:39:39;;;;;;;45.40;22.27;;;-4.10;99.90;;;;;;5093692;28;20627;-83
2024/01/11 06:42:05;;;;;;;44.77;22.67;;;-4.10;99.90;;;;;;5093899;28;20183;-86
2024/01/11 06:44:31;;;;;;;45.83;21.03;;;-4.10;99.90;;;;;;5093561;28;20258;-81
2024/01/11 06:46:56;;;;;;;45.00;23.77;;;-4.10;99.90;;;;;;5094039;28;20161;-84
2024/01/11 06:49:22;;;;;;;40.33;20.63;;;-4.10;99.90;;;;;;5093262;28;20615;-82
2024/01/11 06:51:47;;;;;;;48.37;22.63;;;-4.20;99.90;;;;;;5091708;28;20179;-85
2024/01/11 06:54:13;;;;;;;39.77;19.50;;;-4.20;99.90;;;;;;5093899;28;20523;-82
2024/01/11 06:56:39;;;;;;;42.77;23.70;;;-4.20;99.90;;;;;;5091841;28;20656;-84
2024/01/11 06:59:04;;;;;;;46.70;23.80;;;-4.20;99.90;;;;;;5093666;28;20704;-83
2024/01/11 07:01:30;;;;;;;43.77;23.37;;;-4.20;99.90;;;;;;5093620;28;20217;-83
2024/01/11 07:03:55;;;;;;;48.47;24.97;;;-4.20;99.90;;;;;;5093087;28;20207;-82
2024/01/11 07:06:21;;;;;;;43.57;22.40;;;-4.20;99.90;;;;;;5092611;28;20169;-84
2024/01/11 07:08:47;;;;;;;45.10;22.37;;;-4.20;99.90;;;;;;5093140;28;20175;-81
2024/01/11 07:11:12;;;;;;;51.37;24.43;;;-4.30;99.90;;;;;;5093451;28;20654;-82
2024/01/11 07:13:38;;;;;;;43.67;23.93;;;-4.30;99.90;;;;;;5093454;28;20170;-82
2024/01/11 07:16:05;;;;;;;47.67;24.17;;;-4.30;99.90;;;;;;5093631;28;20354;-81
2024/01/11 07:18:31;;;;;;;42.60;23.70;;;-4.20;99.90;;;;;;5093141;28;20173;-83
2024/01/11 07:20:59;;;;;;;48.90;24.20;;;-4.30;99.90;;;;;;5091628;28;20173;-83
2024/01/11 07:23:25;;;;;;;45.60;22.77;;;-4.30;99.90;;;;;;5092989;28;20684;-81
2024/01/11 07:25:51;;;;;;;43.30;20.37;;;-4.30;99.90;;;;;;5093308;28;20199;-80
2024/01/11 07:28:17;;;;;;;40.77;20.67;;;-4.30;99.90;;;;;;5091552;28;20265;-83
2024/01/11 07:30:44;;;;;;;45.23;22.10;;;-4.40;99.90;;;;;;5093162;28;20316;-87
2024/01/11 07:33:10;;;;;;;50.10;24.90;;;-4.30;99.90;;;;;;5092769;28;20210;-84
2024/01/11 07:35:36;;;;;;;46.83;24.23;;;-4.40;99.90;;;;;;5091963;28;20176;-83
2024/01/11 07:38:01;;;;;;;44.57;24.13;;;-4.40;99.90;;;;;;5093181;28;20229;-84
2024/01/11 07:40:28;;;;;;;44.47;22.37;;;-4.40;99.90;;;;;;5094248;28;20172;-84
2024/01/11 07:42:54;;;;;;;55.97;23.00;;;-4.40;99.90;;;;;;5093347;28;20255;-81
2024/01/11 07:45:20;;;;;;;44.67;22.33;;;-4.40;99.90;;;;;;5092519;28;20565;-84
2024/01/11 07:47:45;;;;;;;48.03;24.43;;;-4.40;99.90;;;;;;5092736;28;20633;-82
2024/01/11 07:50:11;;;;;;;33.23;17.87;;;-4.40;99.90;;;;;;5092661;28;20226;-83
2024/01/11 07:52:37;;;;;;;49.83;23.97;;;-4.40;99.90;;;;;;5093062;28;20172;-84
2024/01/11 07:55:07;;;;;;;49.27;25.40;;;-4.40;99.90;;;;;;5092799;28;20172;-86
2024/01/11 07:57:36;;;;;;;50.37;25.70;;;-4.40;99.90;;;;;;5092696;28;20172;-80
2024/01/11 08:00:03;;;;;;;50.50;24.53;;;-4.40;99.90;;;;;;5092661;28;20175;-87
2024/01/11 08:02:29;;;;;;;48.70;25.50;;;-4.40;99.90;;;;;;5092172;28;20197;-82
2024/01/11 08:04:55;;;;;;;48.93;23.57;;;-4.40;99.90;;;;;;5091496;28;20183;-84
2024/01/11 08:07:21;;;;;;;45.37;24.03;;;-4.30;99.90;;;;;;5092270;28;20696;-83
2024/01/11 08:09:47;;;;;;;51.97;25.17;;;-4.30;99.90;;;;;;5092490;28;20287;-85
2024/01/11 08:12:16;;;;;;;50.27;24.97;;;-4.30;99.90;;;;;;5092455;28;20172;-84
2024/01/11 08:14:42;;;;;;;49.13;26.13;;;-4.30;99.90;;;;;;5092351;28;20229;-83
2024/01/11 08:17:08;;;;;;;47.40;25.27;;;-4.20;99.90;;;;;;5092462;28;20176;-83
2024/01/11 08:19:34;;;;;;;51.73;23.97;;;-4.10;99.90;;;;;;5092179;28;20179;-85
2024/01/11 08:21:59;;;;;;;50.30;24.93;;;-4.20;99.90;;;;;;5092845;28;20194;-85
2024/01/11 08:24:25;;;;;;;47.30;21.77;;;-4.20;99.90;;;;;;5092842;28;20176;-85
2024/01/11 08:26:51;;;;;;;50.63;26.67;;;-4.20;99.90;;;;;;5092782;28;20169;-85
2024/01/11 08:29:19;;;;;;;56.67;25.83;;;-4.20;99.90;;;;;;5091337;28;20244;-85
2024/01/11 08:31:45;;;;;;;51.67;25.73;;;-4.20;99.90;;;;;;5091522;28;20640;-83
2024/01/11 08:34:11;;;;;;;49.60;25.87;;;-4.10;99.90;;;;;;5093863;28;20198;-77
2024/01/11 08:36:38;;;;;;;48.13;23.80;;;-4.00;99.90;;;;;;5095820;28;20630;-79
2024/01/11 08:39:12;;;;;;;47.40;25.27;;;-3.80;99.90;;;;;;5093324;28;20230;-82
2024/01/11 08:41:37;;;;;;;54.40;24.07;;;-3.20;99.90;;;;;;5096219;28;20171;-84
2024/01/11 08:44:05;;;;;;;47.70;24.30;;;-2.60;99.90;;;;;;5095417;28;20185;-82
2024/01/11 08:46:33;;;;;;;52.00;24.40;;;-1.90;99.90;;;;;;5092979;28;20174;-82
2024/01/11 08:49:00;;;;;;;41.17;24.03;;;-1.30;99.90;;;;;;5093916;28;20492;-81
2024/01/11 08:51:26;;;;;;;45.40;24.63;;;-0.70;99.90;;;;;;5093982;28;20217;-80
2024/01/11 08:53:52;;;;;;;43.37;21.00;;;-0.40;99.90;;;;;;5094542;28;20172;-81
2024/01/11 08:56:18;;;;;;;40.47;21.67;;;-0.30;99.90;;;;;;5093185;28;20597;-78
2024/01/11 08:58:44;;;;;;;43.73;21.93;;;-0.20;99.90;;;;;;5094147;28;20277;-79
2024/01/11 09:01:10;;;;;;;39.27;22.10;;;-0.20;99.90;;;;;;5094102;28;20692;-80
2024/01/11 09:03:36;;;;;;;38.47;20.77;;;-0.30;99.90;;;;;;5094037;28;20225;-76
2024/01/11 09:06:03;;;;;;;35.93;20.03;;;-0.10;99.90;;;;;;5095709;28;20526;-79
2024/01/11 09:08:29;;;;;;;39.87;22.00;;;0.10;99.90;;;;;;5095039;28;20176;-81
2024/01/11 09:10:55;;;;;;;40.97;22.83;;;0.20;99.90;;;;;;5093468;28;20245;-75
2024/01/11 09:13:21;;;;;;;35.50;20.93;;;0.40;99.90;;;;;;5093375;28;20180;-76
2024/01/11 09:15:46;;;;;;;44.40;24.07;;;0.50;99.90;;;;;;5094779;28;20196;-76
2024/01/11 09:18:12;;;;;;;40.97;23.97;;;0.60;99.90;;;;;;5093765;28;20172;-76
2024/01/11 09:20:38;;;;;;;45.50;24.40;;;1.00;99.70;;;;;;5094193;28;20258;-77
2024/01/11 09:23:03;;;;;;;38.00;23.53;;;1.00;99.10;;;;;;5094688;28;20179;-76
2024/01/11 09:25:30;;;;;;;40.00;21.00;;;0.80;99.20;;;;;;5094173;28;20191;-77
2024/01/11 09:27:56;;;;;;;44.47;24.50;;;0.50;99.30;;;;;;5094893;28;20176;-75
2024/01/11 09:30:21;;;;;;;41.77;22.80;;;0.30;99.90;;;;;;5094586;28;20218;-76
2024/01/11 09:32:47;;;;;;;39.83;23.53;;;0.00;99.90;;;;;;5093633;28;20569;-76
2024/01/11 09:35:13;;;;;;;39.60;22.27;;;0.00;99.90;;;;;;5094633;28;20172;-77
2024/01/11 09:37:39;;;;;;;42.70;23.70;;;0.40;99.90;;;;;;5093106;28;20213;-78
2024/01/11 09:40:10;;;;;;;40.70;21.93;;;0.50;99.90;;;;;;5094430;28;20191;-77
2024/01/11 09:42:39;;;;;;;41.73;23.77;;;0.70;99.30;;;;;;5094466;28;20185;-76
2024/01/11 09:45:15;;;;;;;41.67;23.37;;;0.90;99.50;;;;;;5093767;28;20176;-79
2024/01/11 09:47:41;;;;;;;42.67;23.87;;;1.60;98.90;;;;;;5094018;28;20172;-77
2024/01/11 09:50:08;;;;;;;38.93;23.13;;;2.00;97.30;;;;;;5093929;28;20231;-78
2024/01/11 09:52:33;;;;;;;39.47;23.43;;;2.60;95.90;;;;;;5093730;28;20635;-77
2024/01/11 09:54:59;;;;;;;37.90;23.67;;;2.60;94.60;;;;;;5094091;28;20175;-75
2024/01/11 09:57:29;;;;;;;41.07;24.27;;;2.40;94.20;;;;;;5094167;28;20251;-76
2024/01/11 09:59:57;;;;;;;41.83;24.33;;;2.30;94.80;;;;;;5093390;28;20191;-76
2024/01/11 10:02:26;;;;;;;44.00;24.70;;;2.30;94.40;;;;;;5092907;28;20187;-75
2024/01/11 10:04:55;;;;;;;38.73;23.67;;;2.60;94.30;;;;;;5093790;28;20164;-79
2024/01/11 10:07:23;;;;;;;44.13;24.17;;;2.70;94.20;;;;;;5093924;28;20172;-76
2024/01/11 10:09:49;;;;;;;38.90;24.03;;;2.80;93.40;;;;;;5092290;28;20208;-78
2024/01/11 10:12:15;;;;;;;36.77;22.13;;;2.90;94.00;;;;;;5093855;28;20168;-78
2024/01/11 10:14:41;;;;;;;43.13;24.67;;;2.80;92.70;;;;;;5092861;28;20239;-77
2024/01/11 10:17:07;;;;;;;38.43;23.93;;;2.40;93.10;;;;;;5094065;28;20639;-77
2024/01/11 10:19:32;;;;;;;46.60;25.40;;;2.10;94.00;;;;;;5093475;28;20168;-77
2024/01/11 10:22:01;;;;;;;41.90;25.50;;;2.60;94.10;;;;;;5092177;28;20183;-79
2024/01/11 10:24:28;;;;;;;40.70;24.67;;;2.70;93.50;;;;;;5093891;28;20191;-79
2024/01/11 10:26:57;;;;;;;39.70;24.37;;;2.90;93.50;;;;;;5092179;28;20661;-77
2024/01/11 10:29:27;;;;;;;39.27;23.83;;;2.90;93.00;;;;;;5092759;28;20233;-78
2024/01/11 10:31:52;;;;;;;39.77;23.20;;;2.80;92.40;;;;;;5093880;28;20178;-75
2024/01/11 10:34:18;;;;;;;45.53;25.43;;;2.50;92.70;;;;;;5093503;28;20243;-76
2024/01/11 10:36:44;;;;;;;42.03;24.93;;;2.40;93.90;;;;;;5093475;28;20215;-76
2024/01/11 10:39:10;;;;;;;39.60;24.90;;;2.50;93.70;;;;;;5092803;28;20315;-76
2024/01/11 10:42:05;;;;;;;37.33;24.47;;;3.20;93.20;;;;;;5092342;28;20184;-77
2024/01/11 10:44:34;;;;;;;41.67;23.70;;;3.20;92.70;;;;;;5093073;28;20156;-75
2024/01/11 10:47:02;;;;;;;40.63;23.97;;;3.30;92.50;;;;;;5091772;28;20212;-75
2024/01/11 10:49:31;;;;;;;42.97;26.67;;;3.70;92.30;;;;;;5093136;28;20272;-75
2024/01/11 10:52:00;;;;;;;42.10;25.33;;;3.90;91.60;;;;;;5093194;28;20199;-75
2024/01/11 10:54:27;;;;;;;49.33;26.23;;;3.90;91.20;;;;;;5092293;28;20197;-75
2024/01/11 10:56:54;;;;;;;40.33;25.03;;;3.80;91.40;;;;;;5092152;28;20178;-74
2024/01/11 10:59:25;;;;;;;44.20;25.73;;;3.90;91.50;;;;;;5093262;28;20192;-75
2024/01/11 11:01:58;;;;;;;55.33;26.33;;;4.00;91.00;;;;;;5091528;28;20197;-74
2024/01/11 11:04:24;;;;;;;42.93;26.60;;;4.00;91.20;;;;;;5091023;28;20168;-75
2024/01/11 11:06:57;;;;;;;38.83;23.87;;;4.50;91.00;;;;;;5092966;28;20646;-75
2024/01/11 11:09:23;;;;;;;40.27;23.87;;;5.00;88.70;;;;;;5093186;28;20192;-75
2024/01/11 11:11:49;;;;;;;38.47;24.33;;;5.40;88.50;;;;;;5091595;28;20654;-75
2024/01/11 11:14:15;;;;;;;36.50;23.70;;;5.80;85.70;;;;;;5092313;28;20176;-75
2024/01/11 11:16:42;;;;;;;40.10;24.87;;;5.40;85.80;;;;;;5091470;28;20636;-75
2024/01/11 11:19:08;;;;;;;37.00;24.07;;;5.90;84.10;;;;;;5092530;28;20184;-75
2024/01/11 11:21:42;;;;;;;38.17;23.67;;;6.10;82.80;;;;;;5092886;28;20254;-75
2024/01/11 11:24:08;;;;;;;39.57;24.47;;;5.90;84.50;;;;;;5091148;28;20198;-73
2024/01/11 11:26:35;;;;;;;46.23;27.23;;;5.30;84.40;;;;;;5090708;28;20640;-74
2024/01/11 11:29:00;;;;;;;35.77;25.00;;;5.80;83.80;;;;;;5092104;28;20224;-76
2024/01/11 11:31:36;;;;;;;35.67;23.70;;;6.00;82.20;;;;;;5092560;28;20179;-76
2024/01/11 11:34:03;;;;;;;35.27;24.47;;;6.20;80.70;;;;;;5091902;28;20174;-78
2024/01/11 11:36:30;;;;;;;36.63;24.50;;;6.20;81.70;;;;;;5092306;28;20163;-75
2024/01/11 11:39:00;;;;;;;36.00;23.30;;;6.80;79.50;;;;;;5092487;28;20730;-77
2024/01/11 11:41:26;;;;;;;35.53;24.13;;;6.50;77.80;;;;;;5092123;28;20641;-78
2024/01/11 11:43:52;;;;;;;36.87;25.37;;;6.30;78.70;;;;;;5091389;28;20179;-78
2024/01/11 11:46:19;;;;;;;32.90;22.57;;;6.10;79.00;;;;;;5092240;28;20168;-77
2024/01/11 11:48:50;;;;;;;34.23;23.47;;;6.50;77.90;;;;;;5092218;28;20174;-78
2024/01/11 11:51:18;;;;;;;38.03;23.63;;;6.90;76.50;;;;;;5092683;28;20208;-80
2024/01/11 11:53:44;;;;;;;35.67;22.23;;;7.20;75.70;;;;;;5092534;28;20260;-77
2024/01/11 11:56:10;;;;;;;31.17;22.20;;;7.30;73.80;;;;;;5092037;28;20198;-76
2024/01/11 11:58:36;;;;;;;31.37;22.07;;;6.90;73.20;;;;;;5091898;28;20168;-73
2024/01/11 12:01:04;;;;;;;29.20;22.17;;;7.10;74.50;;;;;;5091257;28;20237;-77
2024/01/11 12:03:37;;;;;;;34.80;22.90;;;6.70;74.10;;;;;;5091458;28;20188;-76
2024/01/11 12:06:03;;;;;;;30.93;21.50;;;7.10;73.50;;;;;;5092874;28;20196;-76
2024/01/11 12:08:30;;;;;;;32.30;21.30;;;6.70;74.20;;;;;;5096223;28;20247;-75
2024/01/11 12:10:56;;;;;;;33.90;20.80;;;6.60;74.10;;;;;;5095407;28;20569;-76
2024/01/11 12:13:22;;;;;;;30.07;20.73;;;5.50;76.10;;;;;;5094195;28;20232;-74
2024/01/11 12:15:47;;;;;;;30.47;21.17;;;4.90;79.40;;;;;;5096330;28;20233;-75
2024/01/11 12:18:13;;;;;;;29.50;19.77;;;4.00;81.80;;;;;;5095536;28;20251;-75
2024/01/11 12:20:39;;;;;;;37.87;20.53;;;3.60;86.30;;;;;;5096207;28;20175;-74
2024/01/11 12:23:04;;;;;;;36.50;22.07;;;3.00;89.30;;;;;;5095952;28;20173;-75
2024/01/11 12:25:31;;;;;;;36.03;20.67;;;2.60;91.40;;;;;;5093903;28;20259;-75